sensor_id;sensor_type;location;lat;lon;timestamp;P1;P2;P0
77896;PMS5003;67092;64.282;21.056;2023-04-26T00:01:20;1;1;
77896;PMS5003;67092;64.282;21.056;2023-04-26T00:03:46;2;2;
77896;PMS5003;67092;64.282;21.056;2023-04-26T00:06:11;2;2;
77896;PMS5003;67092;64.282;21.056;2023-04-26T00:08:37;2;2;
77896;PMS5003;67092;64.282;21.056;2023-04-26T00:11:03;1;1;
77896;PMS5003;67092;64.282;21.056;2023-04-26T00:13:28;2;2;
77896;PMS5003;67092;64.282;21.056;2023-04-26T00:15:54;2;2;
77896;PMS5003;67092;64.282;21.056;2023-04-26T00:18:20;2;2;
77896;PMS5003;67092;64.282;21.056;2023-04-26T00:20:45;2;2;
77896;PMS5003;67092;64.282;21.056;2023-04-26T00:23:11;2;2;
77896;PMS5003;67092;64.282;21.056;2023-04-26T00:25:37;2;2;
77896;PMS5003;67092;64.282;21.056;2023-04-26T00:28:02;2;2;
77896;PMS5003;67092;64.282;21.056;2023-04-26T00:30:28;1;1;
77896;PMS5003;67092;64.282;21.056;2023-04-26T00:32:54;3;2;
77896;PMS5003;67092;64.282;21.056;2023-04-26T00:35:19;2;1;
77896;PMS5003;67092;64.282;21.056;2023-04-26T00:37:45;1;1;
77896;PMS5003;67092;64.282;21.056;2023-04-26T00:40:11;2;2;
77896;PMS5003;67092;64.282;21.056;2023-04-26T00:42:36;2;2;
77896;PMS5003;67092;64.282;21.056;2023-04-26T00:45:02;2;2;
77896;PMS5003;67092;64.282;21.056;2023-04-26T00:47:28;2;2;
77896;PMS5003;67092;64.282;21.056;2023-04-26T00:49:53;1;1;
77896;PMS5003;67092;64.282;21.056;2023-04-26T00:52:19;2;2;
77896;PMS5003;67092;64.282;21.056;2023-04-26T00:54:44;0;0;
77896;PMS5003;67092;64.282;21.056;2023-04-26T00:57:10;1;1;
77896;PMS5003;67092;64.282;21.056;2023-04-26T00:59:36;2;2;
77896;PMS5003;67092;64.282;21.056;2023-04-26T01:02:01;1;1;
77896;PMS5003;67092;64.282;21.056;2023-04-26T01:04:27;2;2;
77896;PMS5003;67092;64.282;21.056;2023-04-26T01:06:52;2;2;
77896;PMS5003;67092;64.282;21.056;2023-04-26T01:09:18;2;2;
77896;PMS5003;67092;64.282;21.056;2023-04-26T01:11:44;1;1;
77896;PMS5003;67092;64.282;21.056;2023-04-26T01:14:09;2;2;
77896;PMS5003;67092;64.282;21.056;2023-04-26T01:16:35;2;2;
77896;PMS5003;67092;64.282;21.056;2023-04-26T01:21:26;2;1;
77896;PMS5003;67092;64.282;21.056;2023-04-26T01:23:52;2;1;
77896;PMS5003;67092;64.282;21.056;2023-04-26T01:26:18;2;2;
77896;PMS5003;67092;64.282;21.056;2023-04-26T01:28:43;2;2;
77896;PMS5003;67092;64.282;21.056;2023-04-26T01:31:09;1;1;
77896;PMS5003;67092;64.282;21.056;2023-04-26T01:33:35;2;2;
77896;PMS5003;67092;64.282;21.056;2023-04-26T01:36:00;1;1;
77896;PMS5003;67092;64.282;21.056;2023-04-26T01:38:26;2;1;
77896;PMS5003;67092;64.282;21.056;2023-04-26T01:40:52;0;0;
77896;PMS5003;67092;64.282;21.056;2023-04-26T01:43:17;1;1;
77896;PMS5003;67092;64.282;21.056;2023-04-26T01:45:45;2;2;
77896;PMS5003;67092;64.282;21.056;2023-04-26T01:48:08;1;1;
77896;PMS5003;67092;64.282;21.056;2023-04-26T01:50:34;1;1;
77896;PMS5003;67092;64.282;21.056;2023-04-26T01:53:00;2;2;
77896;PMS5003;67092;64.282;21.056;2023-04-26T01:55:25;1;1;
77896;PMS5003;67092;64.282;21.056;2023-04-26T01:57:51;2;2;
77896;PMS5003;67092;64.282;21.056;2023-04-26T02:00:17;3;3;
77896;PMS5003;67092;64.282;21.056;2023-04-26T02:02:42;0;0;
77896;PMS5003;67092;64.282;21.056;2023-04-26T02:05:09;1;1;
77896;PMS5003;67092;64.282;21.056;2023-04-26T02:07:34;1;1;
77896;PMS5003;67092;64.282;21.056;2023-04-26T02:09:59;1;1;
77896;PMS5003;67092;64.282;21.056;2023-04-26T02:12:25;0;0;
77896;PMS5003;67092;64.282;21.056;2023-04-26T02:14:51;1;1;
77896;PMS5003;67092;64.282;21.056;2023-04-26T02:17:16;0;0;
77896;PMS5003;67092;64.282;21.056;2023-04-26T02:19:42;1;1;
77896;PMS5003;67092;64.282;21.056;2023-04-26T02:22:07;0;0;
77896;PMS5003;67092;64.282;21.056;2023-04-26T02:24:33;0;0;
77896;PMS5003;67092;64.282;21.056;2023-04-26T02:26:59;0;0;
77896;PMS5003;67092;64.282;21.056;2023-04-26T02:29:24;1;1;
77896;PMS5003;67092;64.282;21.056;2023-04-26T02:31:50;0;0;
77896;PMS5003;67092;64.282;21.056;2023-04-26T02:34:16;1;0;
77896;PMS5003;67092;64.282;21.056;2023-04-26T02:36:41;1;1;
77896;PMS5003;67092;64.282;21.056;2023-04-26T02:39:07;1;1;
77896;PMS5003;67092;64.282;21.056;2023-04-26T02:41:33;1;1;
77896;PMS5003;67092;64.282;21.056;2023-04-26T02:43:58;2;2;
77896;PMS5003;67092;64.282;21.056;2023-04-26T02:46:24;2;2;
77896;PMS5003;67092;64.282;21.056;2023-04-26T02:48:49;1;1;
77896;PMS5003;67092;64.282;21.056;2023-04-26T02:51:15;1;1;
77896;PMS5003;67092;64.282;21.056;2023-04-26T02:53:41;0;0;
77896;PMS5003;67092;64.282;21.056;2023-04-26T02:56:06;0;0;
77896;PMS5003;67092;64.282;21.056;2023-04-26T02:58:32;1;1;
77896;PMS5003;67092;64.282;21.056;2023-04-26T03:00:58;1;1;
77896;PMS5003;67092;64.282;21.056;2023-04-26T03:03:24;0;0;
77896;PMS5003;67092;64.282;21.056;2023-04-26T03:05:49;1;1;
77896;PMS5003;67092;64.282;21.056;2023-04-26T03:08:15;2;1;
77896;PMS5003;67092;64.282;21.056;2023-04-26T03:10:41;1;1;
77896;PMS5003;67092;64.282;21.056;2023-04-26T03:13:06;0;0;
77896;PMS5003;67092;64.282;21.056;2023-04-26T03:15:32;1;1;
77896;PMS5003;67092;64.282;21.056;2023-04-26T03:17:57;1;1;
77896;PMS5003;67092;64.282;21.056;2023-04-26T03:20:22;1;1;
77896;PMS5003;67092;64.282;21.056;2023-04-26T03:22:48;1;1;
77896;PMS5003;67092;64.282;21.056;2023-04-26T03:25:14;1;1;
77896;PMS5003;67092;64.282;21.056;2023-04-26T03:27:39;0;0;
77896;PMS5003;67092;64.282;21.056;2023-04-26T03:30:06;1;1;
77896;PMS5003;67092;64.282;21.056;2023-04-26T03:32:31;2;1;
77896;PMS5003;67092;64.282;21.056;2023-04-26T03:34:56;1;1;
77896;PMS5003;67092;64.282;21.056;2023-04-26T03:37:22;1;1;
77896;PMS5003;67092;64.282;21.056;2023-04-26T03:39:48;1;1;
77896;PMS5003;67092;64.282;21.056;2023-04-26T03:42:13;1;1;
77896;PMS5003;67092;64.282;21.056;2023-04-26T03:44:39;1;1;
77896;PMS5003;67092;64.282;21.056;2023-04-26T03:47:04;1;1;
77896;PMS5003;67092;64.282;21.056;2023-04-26T03:49:30;1;1;
77896;PMS5003;67092;64.282;21.056;2023-04-26T03:51:56;1;1;
77896;PMS5003;67092;64.282;21.056;2023-04-26T03:54:21;1;1;
77896;PMS5003;67092;64.282;21.056;2023-04-26T03:56:47;0;0;
77896;PMS5003;67092;64.282;21.056;2023-04-26T03:59:13;0;0;
77896;PMS5003;67092;64.282;21.056;2023-04-26T04:01:39;0;0;
77896;PMS5003;67092;64.282;21.056;2023-04-26T04:04:04;1;1;
77896;PMS5003;67092;64.282;21.056;2023-04-26T04:06:30;2;2;
77896;PMS5003;67092;64.282;21.056;2023-04-26T04:08:55;1;1;
77896;PMS5003;67092;64.282;21.056;2023-04-26T04:11:21;0;0;
77896;PMS5003;67092;64.282;21.056;2023-04-26T04:13:46;1;1;
77896;PMS5003;67092;64.282;21.056;2023-04-26T04:16:12;1;1;
77896;PMS5003;67092;64.282;21.056;2023-04-26T04:18:38;1;1;
77896;PMS5003;67092;64.282;21.056;2023-04-26T04:21:03;0;0;
77896;PMS5003;67092;64.282;21.056;2023-04-26T04:23:29;1;1;
77896;PMS5003;67092;64.282;21.056;2023-04-26T04:25:55;1;1;
77896;PMS5003;67092;64.282;21.056;2023-04-26T04:28:20;0;0;
77896;PMS5003;67092;64.282;21.056;2023-04-26T04:30:46;1;1;
77896;PMS5003;67092;64.282;21.056;2023-04-26T04:33:11;0;0;
77896;PMS5003;67092;64.282;21.056;2023-04-26T04:35:37;1;1;
77896;PMS5003;67092;64.282;21.056;2023-04-26T04:38:03;1;0;
77896;PMS5003;67092;64.282;21.056;2023-04-26T04:40:28;1;1;
77896;PMS5003;67092;64.282;21.056;2023-04-26T04:42:54;2;1;
77896;PMS5003;67092;64.282;21.056;2023-04-26T04:45:20;1;1;
77896;PMS5003;67092;64.282;21.056;2023-04-26T04:47:45;1;1;
77896;PMS5003;67092;64.282;21.056;2023-04-26T04:50:11;1;0;
77896;PMS5003;67092;64.282;21.056;2023-04-26T04:52:37;1;1;
77896;PMS5003;67092;64.282;21.056;2023-04-26T04:55:02;1;1;
77896;PMS5003;67092;64.282;21.056;2023-04-26T04:57:28;0;0;
77896;PMS5003;67092;64.282;21.056;2023-04-26T04:59:53;1;1;
77896;PMS5003;67092;64.282;21.056;2023-04-26T05:02:19;1;1;
77896;PMS5003;67092;64.282;21.056;2023-04-26T05:04:45;1;1;
77896;PMS5003;67092;64.282;21.056;2023-04-26T05:07:10;2;1;
77896;PMS5003;67092;64.282;21.056;2023-04-26T05:09:36;0;0;
77896;PMS5003;67092;64.282;21.056;2023-04-26T05:12:02;1;1;
77896;PMS5003;67092;64.282;21.056;2023-04-26T05:14:28;2;1;
77896;PMS5003;67092;64.282;21.056;2023-04-26T05:16:53;1;1;
77896;PMS5003;67092;64.282;21.056;2023-04-26T05:19:18;0;0;
77896;PMS5003;67092;64.282;21.056;2023-04-26T05:21:44;1;1;
77896;PMS5003;67092;64.282;21.056;2023-04-26T05:24:10;2;2;
77896;PMS5003;67092;64.282;21.056;2023-04-26T05:26:35;3;3;
77896;PMS5003;67092;64.282;21.056;2023-04-26T05:29:01;2;1;
77896;PMS5003;67092;64.282;21.056;2023-04-26T05:31:27;1;1;
77896;PMS5003;67092;64.282;21.056;2023-04-26T05:33:52;2;1;
77896;PMS5003;67092;64.282;21.056;2023-04-26T05:36:18;2;1;
77896;PMS5003;67092;64.282;21.056;2023-04-26T05:38:44;1;1;
77896;PMS5003;67092;64.282;21.056;2023-04-26T05:41:09;0;0;
77896;PMS5003;67092;64.282;21.056;2023-04-26T05:43:35;1;1;
77896;PMS5003;67092;64.282;21.056;2023-04-26T05:46:00;1;1;
77896;PMS5003;67092;64.282;21.056;2023-04-26T05:48:26;2;1;
77896;PMS5003;67092;64.282;21.056;2023-04-26T05:50:52;1;1;
77896;PMS5003;67092;64.282;21.056;2023-04-26T05:53:18;2;1;
77896;PMS5003;67092;64.282;21.056;2023-04-26T05:55:43;1;1;
77896;PMS5003;67092;64.282;21.056;2023-04-26T05:58:09;1;1;
77896;PMS5003;67092;64.282;21.056;2023-04-26T06:00:34;1;1;
77896;PMS5003;67092;64.282;21.056;2023-04-26T06:03:00;1;1;
77896;PMS5003;67092;64.282;21.056;2023-04-26T06:05:26;1;1;
77896;PMS5003;67092;64.282;21.056;2023-04-26T06:07:51;1;1;
77896;PMS5003;67092;64.282;21.056;2023-04-26T06:10:17;1;1;
77896;PMS5003;67092;64.282;21.056;2023-04-26T06:12:43;1;1;
77896;PMS5003;67092;64.282;21.056;2023-04-26T06:15:09;1;0;
77896;PMS5003;67092;64.282;21.056;2023-04-26T06:17:34;2;1;
77896;PMS5003;67092;64.282;21.056;2023-04-26T06:19:59;1;1;
77896;PMS5003;67092;64.282;21.056;2023-04-26T06:22:25;0;0;
77896;PMS5003;67092;64.282;21.056;2023-04-26T06:24:51;1;0;
77896;PMS5003;67092;64.282;21.056;2023-04-26T06:27:17;1;1;
77896;PMS5003;67092;64.282;21.056;2023-04-26T06:29:42;1;0;
77896;PMS5003;67092;64.282;21.056;2023-04-26T06:32:07;1;1;
77896;PMS5003;67092;64.282;21.056;2023-04-26T06:34:33;1;1;
77896;PMS5003;67092;64.282;21.056;2023-04-26T06:36:59;0;0;
77896;PMS5003;67092;64.282;21.056;2023-04-26T06:39:24;2;1;
77896;PMS5003;67092;64.282;21.056;2023-04-26T06:41:50;2;2;
77896;PMS5003;67092;64.282;21.056;2023-04-26T06:44:16;0;0;
77896;PMS5003;67092;64.282;21.056;2023-04-26T06:46:41;1;1;
77896;PMS5003;67092;64.282;21.056;2023-04-26T06:49:07;0;0;
77896;PMS5003;67092;64.282;21.056;2023-04-26T06:51:33;1;1;
77896;PMS5003;67092;64.282;21.056;2023-04-26T06:53:58;0;0;
77896;PMS5003;67092;64.282;21.056;2023-04-26T06:56:24;1;1;
77896;PMS5003;67092;64.282;21.056;2023-04-26T06:58:58;0;0;
77896;PMS5003;67092;64.282;21.056;2023-04-26T07:01:15;0;0;
77896;PMS5003;67092;64.282;21.056;2023-04-26T07:03:41;0;0;
77896;PMS5003;67092;64.282;21.056;2023-04-26T07:06:07;0;0;
77896;PMS5003;67092;64.282;21.056;2023-04-26T07:08:32;0;0;
77896;PMS5003;67092;64.282;21.056;2023-04-26T07:10:58;1;1;
77896;PMS5003;67092;64.282;21.056;2023-04-26T07:13:23;1;1;
77896;PMS5003;67092;64.282;21.056;2023-04-26T07:15:49;1;1;
77896;PMS5003;67092;64.282;21.056;2023-04-26T07:18:15;0;0;
77896;PMS5003;67092;64.282;21.056;2023-04-26T07:20:40;2;0;
77896;PMS5003;67092;64.282;21.056;2023-04-26T07:23:06;1;1;
77896;PMS5003;67092;64.282;21.056;2023-04-26T07:25:31;0;0;
77896;PMS5003;67092;64.282;21.056;2023-04-26T07:27:57;0;0;
77896;PMS5003;67092;64.282;21.056;2023-04-26T07:30:24;1;0;
77896;PMS5003;67092;64.282;21.056;2023-04-26T07:32:48;0;0;
77896;PMS5003;67092;64.282;21.056;2023-04-26T07:35:14;0;0;
77896;PMS5003;67092;64.282;21.056;2023-04-26T07:37:40;0;0;
77896;PMS5003;67092;64.282;21.056;2023-04-26T07:40:06;0;0;
77896;PMS5003;67092;64.282;21.056;2023-04-26T07:42:31;1;1;
77896;PMS5003;67092;64.282;21.056;2023-04-26T07:44:56;1;1;
77896;PMS5003;67092;64.282;21.056;2023-04-26T07:47:22;1;1;
77896;PMS5003;67092;64.282;21.056;2023-04-26T07:49:51;1;1;
77896;PMS5003;67092;64.282;21.056;2023-04-26T07:52:13;0;0;
77896;PMS5003;67092;64.282;21.056;2023-04-26T07:54:39;0;0;
77896;PMS5003;67092;64.282;21.056;2023-04-26T07:57:05;0;0;
77896;PMS5003;67092;64.282;21.056;2023-04-26T07:59:30;0;0;
77896;PMS5003;67092;64.282;21.056;2023-04-26T08:01:56;0;0;
77896;PMS5003;67092;64.282;21.056;2023-04-26T08:06:47;0;0;
77896;PMS5003;67092;64.282;21.056;2023-04-26T08:09:13;0;0;
77896;PMS5003;67092;64.282;21.056;2023-04-26T08:11:38;0;0;
77896;PMS5003;67092;64.282;21.056;2023-04-26T08:14:04;0;0;
77896;PMS5003;67092;64.282;21.056;2023-04-26T08:16:30;0;0;
77896;PMS5003;67092;64.282;21.056;2023-04-26T08:18:55;0;0;
77896;PMS5003;67092;64.282;21.056;2023-04-26T08:21:21;0;0;
77896;PMS5003;67092;64.282;21.056;2023-04-26T08:23:47;0;0;
77896;PMS5003;67092;64.282;21.056;2023-04-26T08:26:12;1;0;
77896;PMS5003;67092;64.282;21.056;2023-04-26T08:28:38;1;1;
77896;PMS5003;67092;64.282;21.056;2023-04-26T08:31:04;0;0;
77896;PMS5003;67092;64.282;21.056;2023-04-26T08:33:29;1;0;
77896;PMS5003;67092;64.282;21.056;2023-04-26T08:35:55;0;0;
77896;PMS5003;67092;64.282;21.056;2023-04-26T08:38:20;0;0;
77896;PMS5003;67092;64.282;21.056;2023-04-26T08:40:46;1;1;
77896;PMS5003;67092;64.282;21.056;2023-04-26T08:43:12;0;0;
77896;PMS5003;67092;64.282;21.056;2023-04-26T08:45:38;0;0;
77896;PMS5003;67092;64.282;21.056;2023-04-26T08:48:03;0;0;
77896;PMS5003;67092;64.282;21.056;2023-04-26T08:50:29;0;0;
77896;PMS5003;67092;64.282;21.056;2023-04-26T08:52:54;0;0;
77896;PMS5003;67092;64.282;21.056;2023-04-26T08:55:20;0;0;
77896;PMS5003;67092;64.282;21.056;2023-04-26T08:57:46;0;0;
77896;PMS5003;67092;64.282;21.056;2023-04-26T09:00:12;0;0;
77896;PMS5003;67092;64.282;21.056;2023-04-26T09:02:37;0;0;
77896;PMS5003;67092;64.282;21.056;2023-04-26T09:05:02;0;0;
77896;PMS5003;67092;64.282;21.056;2023-04-26T09:07:29;0;0;
77896;PMS5003;67092;64.282;21.056;2023-04-26T09:09:54;0;0;
77896;PMS5003;67092;64.282;21.056;2023-04-26T09:12:20;0;0;
77896;PMS5003;67092;64.282;21.056;2023-04-26T09:14:45;0;0;
77896;PMS5003;67092;64.282;21.056;2023-04-26T09:19:37;0;0;
77896;PMS5003;67092;64.282;21.056;2023-04-26T09:22:02;1;1;
77896;PMS5003;67092;64.282;21.056;2023-04-26T09:24:27;0;0;
77896;PMS5003;67092;64.282;21.056;2023-04-26T09:29:19;1;0;
77896;PMS5003;67092;64.282;21.056;2023-04-26T09:31:45;0;0;
77896;PMS5003;67092;64.282;21.056;2023-04-26T09:34:10;0;0;
77896;PMS5003;67092;64.282;21.056;2023-04-26T09:39:01;0;0;
77896;PMS5003;67092;64.282;21.056;2023-04-26T09:43:52;0;0;
77896;PMS5003;67092;64.282;21.056;2023-04-26T09:46:21;0;0;
77896;PMS5003;67092;64.282;21.056;2023-04-26T09:48:44;0;0;
77896;PMS5003;67092;64.282;21.056;2023-04-26T09:51:10;0;0;
77896;PMS5003;67092;64.282;21.056;2023-04-26T09:53:37;0;0;
77896;PMS5003;67092;64.282;21.056;2023-04-26T09:56:06;0;0;
77896;PMS5003;67092;64.282;21.056;2023-04-26T09:58:26;0;0;
77896;PMS5003;67092;64.282;21.056;2023-04-26T10:00:52;0;0;
77896;PMS5003;67092;64.282;21.056;2023-04-26T10:03:18;1;0;
77896;PMS5003;67092;64.282;21.056;2023-04-26T10:05:43;0;0;
77896;PMS5003;67092;64.282;21.056;2023-04-26T10:08:09;0;0;
77896;PMS5003;67092;64.282;21.056;2023-04-26T10:10:34;0;0;
77896;PMS5003;67092;64.282;21.056;2023-04-26T10:13:00;0;0;
77896;PMS5003;67092;64.282;21.056;2023-04-26T10:15:26;1;1;
77896;PMS5003;67092;64.282;21.056;2023-04-26T10:17:51;1;1;
77896;PMS5003;67092;64.282;21.056;2023-04-26T10:20:17;0;0;
77896;PMS5003;67092;64.282;21.056;2023-04-26T10:22:44;1;0;
77896;PMS5003;67092;64.282;21.056;2023-04-26T10:25:08;0;0;
77896;PMS5003;67092;64.282;21.056;2023-04-26T10:30:06;0;0;
77896;PMS5003;67092;64.282;21.056;2023-04-26T10:32:25;0;0;
77896;PMS5003;67092;64.282;21.056;2023-04-26T10:37:16;0;0;
77896;PMS5003;67092;64.282;21.056;2023-04-26T10:39:42;0;0;
77896;PMS5003;67092;64.282;21.056;2023-04-26T10:42:16;1;1;
77896;PMS5003;67092;64.282;21.056;2023-04-26T10:44:36;0;0;
77896;PMS5003;67092;64.282;21.056;2023-04-26T10:46:59;0;0;
77896;PMS5003;67092;64.282;21.056;2023-04-26T10:49:24;1;1;
77896;PMS5003;67092;64.282;21.056;2023-04-26T10:54:15;0;0;
77896;PMS5003;67092;64.282;21.056;2023-04-26T10:56:49;0;0;
77896;PMS5003;67092;64.282;21.056;2023-04-26T10:59:07;1;1;
77896;PMS5003;67092;64.282;21.056;2023-04-26T11:01:32;0;0;
77896;PMS5003;67092;64.282;21.056;2023-04-26T11:04:00;0;0;
77896;PMS5003;67092;64.282;21.056;2023-04-26T11:06:24;0;0;
77896;PMS5003;67092;64.282;21.056;2023-04-26T11:08:49;0;0;
77896;PMS5003;67092;64.282;21.056;2023-04-26T11:11:15;1;1;
77896;PMS5003;67092;64.282;21.056;2023-04-26T11:13:41;0;0;
77896;PMS5003;67092;64.282;21.056;2023-04-26T11:16:07;1;1;
77896;PMS5003;67092;64.282;21.056;2023-04-26T11:18:32;1;1;
77896;PMS5003;67092;64.282;21.056;2023-04-26T11:20:58;1;1;
77896;PMS5003;67092;64.282;21.056;2023-04-26T11:23:23;0;0;
77896;PMS5003;67092;64.282;21.056;2023-04-26T11:25:49;1;1;
77896;PMS5003;67092;64.282;21.056;2023-04-26T11:28:14;1;1;
77896;PMS5003;67092;64.282;21.056;2023-04-26T11:30:40;0;0;
77896;PMS5003;67092;64.282;21.056;2023-04-26T11:33:06;1;1;
77896;PMS5003;67092;64.282;21.056;2023-04-26T11:35:32;1;1;
77896;PMS5003;67092;64.282;21.056;2023-04-26T11:37:57;0;0;
77896;PMS5003;67092;64.282;21.056;2023-04-26T11:40:23;0;0;
77896;PMS5003;67092;64.282;21.056;2023-04-26T11:42:48;2;1;
77896;PMS5003;67092;64.282;21.056;2023-04-26T11:45:14;1;1;
77896;PMS5003;67092;64.282;21.056;2023-04-26T11:47:39;1;1;
77896;PMS5003;67092;64.282;21.056;2023-04-26T11:50:06;0;0;
77896;PMS5003;67092;64.282;21.056;2023-04-26T11:52:31;0;0;
77896;PMS5003;67092;64.282;21.056;2023-04-26T11:55:02;1;1;
77896;PMS5003;67092;64.282;21.056;2023-04-26T11:57:22;1;1;
77896;PMS5003;67092;64.282;21.056;2023-04-26T11:59:48;1;1;
77896;PMS5003;67092;64.282;21.056;2023-04-26T12:02:13;1;1;
77896;PMS5003;67092;64.282;21.056;2023-04-26T12:04:39;0;0;
77896;PMS5003;67092;64.282;21.056;2023-04-26T12:07:05;1;1;
77896;PMS5003;67092;64.282;21.056;2023-04-26T12:09:30;1;1;
77896;PMS5003;67092;64.282;21.056;2023-04-26T12:11:56;1;1;
77896;PMS5003;67092;64.282;21.056;2023-04-26T12:14:22;2;1;
77896;PMS5003;67092;64.282;21.056;2023-04-26T12:16:47;1;1;
77896;PMS5003;67092;64.282;21.056;2023-04-26T12:19:13;2;2;
77896;PMS5003;67092;64.282;21.056;2023-04-26T12:21:39;0;0;
77896;PMS5003;67092;64.282;21.056;2023-04-26T12:24:04;1;1;
77896;PMS5003;67092;64.282;21.056;2023-04-26T12:28:55;1;1;
77896;PMS5003;67092;64.282;21.056;2023-04-26T12:31:21;1;1;
77896;PMS5003;67092;64.282;21.056;2023-04-26T12:33:47;1;1;
77896;PMS5003;67092;64.282;21.056;2023-04-26T12:36:12;0;0;
77896;PMS5003;67092;64.282;21.056;2023-04-26T12:38:38;1;1;
77896;PMS5003;67092;64.282;21.056;2023-04-26T12:41:04;1;1;
77896;PMS5003;67092;64.282;21.056;2023-04-26T12:43:29;1;1;
77896;PMS5003;67092;64.282;21.056;2023-04-26T12:45:55;0;0;
77896;PMS5003;67092;64.282;21.056;2023-04-26T12:48:21;2;2;
77896;PMS5003;67092;64.282;21.056;2023-04-26T12:50:46;1;1;
77896;PMS5003;67092;64.282;21.056;2023-04-26T12:53:12;1;1;
77896;PMS5003;67092;64.282;21.056;2023-04-26T12:55:37;1;1;
77896;PMS5003;67092;64.282;21.056;2023-04-26T12:58:03;1;1;
77896;PMS5003;67092;64.282;21.056;2023-04-26T13:00:29;1;1;
77896;PMS5003;67092;64.282;21.056;2023-04-26T13:02:54;0;0;
77896;PMS5003;67092;64.282;21.056;2023-04-26T13:05:20;1;1;
77896;PMS5003;67092;64.282;21.056;2023-04-26T13:07:46;2;1;
77896;PMS5003;67092;64.282;21.056;2023-04-26T13:10:11;2;2;
77896;PMS5003;67092;64.282;21.056;2023-04-26T13:12:37;2;1;
77896;PMS5003;67092;64.282;21.056;2023-04-26T13:15:03;1;1;
77896;PMS5003;67092;64.282;21.056;2023-04-26T13:17:29;2;1;
77896;PMS5003;67092;64.282;21.056;2023-04-26T13:19:54;1;1;
77896;PMS5003;67092;64.282;21.056;2023-04-26T13:22:20;2;2;
77896;PMS5003;67092;64.282;21.056;2023-04-26T13:24:45;2;2;
77896;PMS5003;67092;64.282;21.056;2023-04-26T13:27:11;1;1;
77896;PMS5003;67092;64.282;21.056;2023-04-26T13:29:36;0;0;
77896;PMS5003;67092;64.282;21.056;2023-04-26T13:32:02;1;1;
77896;PMS5003;67092;64.282;21.056;2023-04-26T13:34:28;1;1;
77896;PMS5003;67092;64.282;21.056;2023-04-26T13:36:54;2;2;
77896;PMS5003;67092;64.282;21.056;2023-04-26T13:39:19;2;2;
77896;PMS5003;67092;64.282;21.056;2023-04-26T13:41:45;2;2;
77896;PMS5003;67092;64.282;21.056;2023-04-26T13:44:10;1;1;
77896;PMS5003;67092;64.282;21.056;2023-04-26T13:46:36;2;2;
77896;PMS5003;67092;64.282;21.056;2023-04-26T13:49:02;2;2;
77896;PMS5003;67092;64.282;21.056;2023-04-26T13:51:27;2;2;
77896;PMS5003;67092;64.282;21.056;2023-04-26T13:53:53;2;2;
77896;PMS5003;67092;64.282;21.056;2023-04-26T13:56:19;0;0;
77896;PMS5003;67092;64.282;21.056;2023-04-26T13:58:44;2;1;
77896;PMS5003;67092;64.282;21.056;2023-04-26T14:01:10;2;2;
77896;PMS5003;67092;64.282;21.056;2023-04-26T14:03:35;2;2;
77896;PMS5003;67092;64.282;21.056;2023-04-26T14:06:01;3;3;
77896;PMS5003;67092;64.282;21.056;2023-04-26T14:08:27;3;3;
77896;PMS5003;67092;64.282;21.056;2023-04-26T14:10:52;0;0;
77896;PMS5003;67092;64.282;21.056;2023-04-26T14:13:18;2;2;
77896;PMS5003;67092;64.282;21.056;2023-04-26T14:15:44;4;2;
77896;PMS5003;67092;64.282;21.056;2023-04-26T14:18:09;2;2;
77896;PMS5003;67092;64.282;21.056;2023-04-26T14:20:35;1;1;
77896;PMS5003;67092;64.282;21.056;2023-04-26T14:23:00;2;2;
77896;PMS5003;67092;64.282;21.056;2023-04-26T14:25:26;3;3;
77896;PMS5003;67092;64.282;21.056;2023-04-26T14:27:52;1;1;
77896;PMS5003;67092;64.282;21.056;2023-04-26T14:30:17;1;1;
77896;PMS5003;67092;64.282;21.056;2023-04-26T14:32:43;3;3;
77896;PMS5003;67092;64.282;21.056;2023-04-26T14:35:09;2;2;
77896;PMS5003;67092;64.282;21.056;2023-04-26T14:37:34;2;2;
77896;PMS5003;67092;64.282;21.056;2023-04-26T14:40:00;3;2;
77896;PMS5003;67092;64.282;21.056;2023-04-26T14:42:25;3;3;
77896;PMS5003;67092;64.282;21.056;2023-04-26T14:44:51;2;2;
77896;PMS5003;67092;64.282;21.056;2023-04-26T14:47:17;2;2;
77896;PMS5003;67092;64.282;21.056;2023-04-26T14:49:42;2;2;
77896;PMS5003;67092;64.282;21.056;2023-04-26T14:52:08;2;2;
77896;PMS5003;67092;64.282;21.056;2023-04-26T14:54:36;2;2;
77896;PMS5003;67092;64.282;21.056;2023-04-26T14:56:59;2;2;
77896;PMS5003;67092;64.282;21.056;2023-04-26T14:59:25;2;2;
77896;PMS5003;67092;64.282;21.056;2023-04-26T15:01:51;3;3;
77896;PMS5003;67092;64.282;21.056;2023-04-26T15:04:16;2;2;
77896;PMS5003;67092;64.282;21.056;2023-04-26T15:06:42;4;4;
77896;PMS5003;67092;64.282;21.056;2023-04-26T15:09:08;4;4;
77896;PMS5003;67092;64.282;21.056;2023-04-26T15:11:33;4;4;
77896;PMS5003;67092;64.282;21.056;2023-04-26T15:13:59;2;2;
77896;PMS5003;67092;64.282;21.056;2023-04-26T15:16:25;4;4;
77896;PMS5003;67092;64.282;21.056;2023-04-26T15:18:50;3;3;
77896;PMS5003;67092;64.282;21.056;2023-04-26T15:21:16;5;5;
77896;PMS5003;67092;64.282;21.056;2023-04-26T15:23:41;4;3;
77896;PMS5003;67092;64.282;21.056;2023-04-26T15:26:07;4;4;
77896;PMS5003;67092;64.282;21.056;2023-04-26T15:28:33;3;2;
77896;PMS5003;67092;64.282;21.056;2023-04-26T15:31:02;5;3;
77896;PMS5003;67092;64.282;21.056;2023-04-26T15:33:24;5;4;
77896;PMS5003;67092;64.282;21.056;2023-04-26T15:35:50;3;3;
77896;PMS5003;67092;64.282;21.056;2023-04-26T15:38:15;5;4;
77896;PMS5003;67092;64.282;21.056;2023-04-26T15:40:41;3;3;
77896;PMS5003;67092;64.282;21.056;2023-04-26T15:43:07;4;4;
77896;PMS5003;67092;64.282;21.056;2023-04-26T15:45:33;3;3;
77896;PMS5003;67092;64.282;21.056;2023-04-26T15:47:58;7;5;
77896;PMS5003;67092;64.282;21.056;2023-04-26T15:50:23;5;5;
77896;PMS5003;67092;64.282;21.056;2023-04-26T15:52:49;3;3;
77896;PMS5003;67092;64.282;21.056;2023-04-26T15:55:15;3;3;
77896;PMS5003;67092;64.282;21.056;2023-04-26T15:57:40;5;4;
77896;PMS5003;67092;64.282;21.056;2023-04-26T16:00:07;3;3;
77896;PMS5003;67092;64.282;21.056;2023-04-26T16:02:32;5;4;
77896;PMS5003;67092;64.282;21.056;2023-04-26T16:04:57;8;5;
77896;PMS5003;67092;64.282;21.056;2023-04-26T16:07:23;5;4;
77896;PMS5003;67092;64.282;21.056;2023-04-26T16:09:49;5;5;
77896;PMS5003;67092;64.282;21.056;2023-04-26T16:12:14;6;5;
77896;PMS5003;67092;64.282;21.056;2023-04-26T16:14:40;5;5;
77896;PMS5003;67092;64.282;21.056;2023-04-26T16:17:05;5;4;
77896;PMS5003;67092;64.282;21.056;2023-04-26T16:19:31;6;4;
77896;PMS5003;67092;64.282;21.056;2023-04-26T16:21:57;4;4;
77896;PMS5003;67092;64.282;21.056;2023-04-26T16:24:22;5;5;
77896;PMS5003;67092;64.282;21.056;2023-04-26T16:26:48;4;3;
77896;PMS5003;67092;64.282;21.056;2023-04-26T16:29:14;5;5;
77896;PMS5003;67092;64.282;21.056;2023-04-26T16:31:39;5;5;
77896;PMS5003;67092;64.282;21.056;2023-04-26T16:34:05;6;6;
77896;PMS5003;67092;64.282;21.056;2023-04-26T16:36:31;4;4;
77896;PMS5003;67092;64.282;21.056;2023-04-26T16:38:56;6;5;
77896;PMS5003;67092;64.282;21.056;2023-04-26T16:41:22;5;4;
77896;PMS5003;67092;64.282;21.056;2023-04-26T16:43:47;4;3;
77896;PMS5003;67092;64.282;21.056;2023-04-26T16:46:13;4;4;